Penryn, United Kingdom
Current Conditions -  °F | °C
As of 11:50 PM on Monday 22 Dec 2014 (Local Time) from EGDR Reporting Station
Haze Haze  
Wind Chill: 52°   Ceiling: 1800
Heat Index: 52°   Visibility: 6mi
Dew Point: 48°   Wind: 13mph
Humidity: 88%   Direction: 250°WSW
Pressure: 30.18"   Gusts: 25mph
Location:  50.17°N, 5.1°W
Report Text: EGDR 222350Z 25011G22KT 9999 HZ FEW007 SCT014 OVC018 11/09 Q1022 RERA REDZ GRN
Loading
Personal Weather Stations






























Interactive Weather Map New forecast layout! Learn more

10-Day Weather Forecast

Advertisements
Track Severe Weather on mobile